Time;durP1;ratioP1;P1;durP2;ratioP2;P2;SDS_P1;SDS_P2;PMS_P1;PMS_P2;Temp;Humidity;BMP_temperature;BMP_pressure;BME280_temperature;BME280_humidity;BME280_pressure;Samples;Min_cycle;Max_cycle;Signal;HPM_P1;HPM_P2
2021/05/11 00:00:24;;;;;;;0.22;0.20;;;;;;;13.22;79.63;100950.09;4880756;29;20407;-82
2021/05/11 00:02:50;;;;;;;0.10;0.10;;;;;;;13.14;79.75;100936.84;4878792;29;20072;-82
2021/05/11 00:05:16;;;;;;;0.17;0.17;;;;;;;13.31;79.56;100972.84;4865117;29;20117;-82
2021/05/11 00:07:42;;;;;;;0.10;0.10;;;;;;;13.13;80.17;100943.84;4879310;29;20067;-82
2021/05/11 00:10:08;;;;;;;0.10;0.10;;;;;;;12.85;79.90;100902.75;4875586;29;20072;-82
2021/05/11 00:12:34;;;;;;;0.10;0.10;;;;;;;13.08;80.26;100953.03;4894381;29;20071;-82
2021/05/11 00:15:00;;;;;;;0.10;0.10;;;;;;;13.09;79.79;100950.28;4895033;29;20396;-80
2021/05/11 00:17:25;;;;;;;0.20;0.20;;;;;;;13.11;79.93;100969.31;4877573;29;20048;-82
2021/05/11 00:19:51;;;;;;;0.17;0.17;;;;;;;12.97;80.17;100953.97;4878197;29;20052;-82
2021/05/11 00:22:16;;;;;;;0.10;0.10;;;;;;;13.09;80.51;100986.88;4893953;29;20051;-82
2021/05/11 00:24:42;;;;;;;0.20;0.20;;;;;;;12.90;80.31;100961.50;4910307;29;20112;-82
2021/05/11 00:27:07;;;;;;;0.10;0.10;;;;;;;12.95;80.28;100961.97;4894207;29;20055;-82
2021/05/11 00:29:33;;;;;;;0.20;0.20;;;;;;;12.89;80.55;100952.00;4845404;29;20157;-82
2021/05/11 00:31:59;;;;;;;0.20;0.10;;;;;;;12.85;80.54;100975.94;4878720;29;20059;-82
2021/05/11 00:34:24;;;;;;;0.20;0.20;;;;;;;12.79;80.65;100977.28;4878439;29;20048;-81
2021/05/11 00:36:50;;;;;;;0.10;0.10;;;;;;;12.55;80.48;100929.69;4881609;29;20048;-82
2021/05/11 00:39:15;;;;;;;0.20;0.20;;;;;;;12.79;80.27;100963.38;4894141;29;20078;-82
2021/05/11 00:41:41;;;;;;;0.20;0.20;;;;;;;12.73;80.00;100974.34;4894321;29;20427;-82
2021/05/11 00:44:24;;;;;;;0.10;0.10;;;;;;;12.75;80.12;100982.88;4878877;29;20418;-82
2021/05/11 00:47:08;;;;;;;0.10;0.10;;;;;;;12.54;80.18;100936.69;4879024;29;20407;-81
2021/05/11 00:49:36;;;;;;;0.20;0.20;;;;;;;12.76;79.80;100971.50;4873779;29;20480;-81
2021/05/11 00:52:04;;;;;;;0.10;0.10;;;;;;;12.64;79.94;100962.91;4875564;29;20083;-80
2021/05/11 00:54:30;;;;;;;0.10;0.10;;;;;;;12.41;80.63;100949.16;4905118;29;20108;-80
2021/05/11 00:56:56;;;;;;;0.20;0.20;;;;;;;12.54;80.52;100964.59;4874031;29;20056;-80
2021/05/11 00:59:29;;;;;;;0.10;0.10;;;;;;;12.44;80.39;100954.13;4872957;29;20040;-80
2021/05/11 01:01:57;;;;;;;0.10;0.10;;;;;;;12.60;80.36;100983.22;4881920;29;20056;-80
2021/05/11 01:04:24;;;;;;;0.10;0.10;;;;;;;12.54;80.72;100978.50;4885008;29;20056;-80
2021/05/11 01:06:51;;;;;;;0.10;0.10;;;;;;;12.43;80.80;100960.31;4887825;29;20043;-80
2021/05/11 01:09:17;;;;;;;0.20;0.20;;;;;;;12.47;81.34;100958.25;4889938;29;20036;-81
2021/05/11 01:11:43;;;;;;;0.17;0.17;;;;;;;12.47;81.73;100966.91;4888116;29;20866;-80
2021/05/11 01:14:09;;;;;;;0.20;0.20;;;;;;;12.51;81.83;100970.94;4858346;29;20141;-80
2021/05/11 01:16:35;;;;;;;0.10;0.10;;;;;;;12.50;82.09;100973.66;4870154;29;20052;-80
2021/05/11 01:24:38;;;;;;;0.20;0.20;;;;;;;12.43;82.20;100969.91;4876038;29;20048;-81
2021/05/11 01:29:54;;;;;;;0.15;0.15;;;;;;;12.50;82.56;101002.41;4889401;29;20064;-81
2021/05/11 02:23:19;;;;;;;0.20;0.20;;;;;;;12.27;84.80;100986.03;4865764;29;20384;-81
2021/05/11 02:25:44;;;;;;;0.20;0.20;;;;;;;12.16;84.94;100984.28;4877242;29;20040;-80
2021/05/11 02:28:10;;;;;;;0.10;0.10;;;;;;;12.20;84.63;100987.47;4892924;29;20143;-80
2021/05/11 02:30:36;;;;;;;0.20;0.20;;;;;;;12.23;84.44;100990.69;4877470;29;20067;-80
2021/05/11 02:33:02;;;;;;;0.20;0.20;;;;;;;12.23;84.98;100985.47;4892430;29;20059;-81
2021/05/11 02:35:28;;;;;;;0.15;0.15;;;;;;;12.16;85.05;100976.44;4893827;29;20051;-81
2021/05/11 02:37:53;;;;;;;0.10;0.10;;;;;;;12.21;85.17;100989.13;4893139;29;20817;-80
2021/05/11 02:40:21;;;;;;;0.10;0.10;;;;;;;12.10;85.20;100969.97;4908113;29;20062;-80
2021/05/11 02:42:50;;;;;;;1.48;0.17;;;;;;;12.19;86.17;100980.59;4892599;29;20798;-81
2021/05/11 02:45:16;;;;;;;0.10;0.10;;;;;;;12.11;85.47;100962.97;4878596;29;20559;-80
2021/05/11 02:47:49;;;;;;;0.13;0.13;;;;;;;12.14;85.86;100978.38;4862446;29;20083;-81
2021/05/11 02:50:17;;;;;;;0.30;0.30;;;;;;;12.05;85.79;100961.69;4859760;29;20076;-81
2021/05/11 02:52:44;;;;;;;0.20;0.20;;;;;;;12.12;86.27;100982.88;4860284;29;20079;-81
2021/05/11 02:55:10;;;;;;;0.20;0.20;;;;;;;12.07;86.37;100974.63;4858951;29;20097;-81
2021/05/11 02:57:36;;;;;;;0.20;0.20;;;;;;;11.98;86.88;100960.50;4874129;29;20081;-81
2021/05/11 03:00:06;;;;;;;0.95;0.40;;;;;;;12.01;86.92;100962.03;4876156;29;20490;-81
2021/05/11 03:02:32;;;;;;;0.30;0.30;;;;;;;11.89;87.26;100961.28;4875238;29;20127;-81
2021/05/11 03:04:58;;;;;;;0.30;0.30;;;;;;;12.02;86.83;100982.78;4876859;29;20135;-81
2021/05/11 03:07:23;;;;;;;0.35;0.30;;;;;;;12.04;86.86;100978.31;4895832;29;20096;-80
2021/05/11 03:09:49;;;;;;;0.22;0.22;;;;;;;12.08;86.60;100984.94;4896722;29;20048;-81
2021/05/11 03:12:14;;;;;;;0.30;0.30;;;;;;;12.06;87.32;100986.00;4897562;29;20045;-81
2021/05/11 03:14:40;;;;;;;0.38;0.30;;;;;;;12.06;86.93;100965.94;4864763;29;20049;-81
2021/05/11 03:17:05;;;;;;;0.22;0.20;;;;;;;11.97;87.07;100955.41;4864431;29;20056;-80
2021/05/11 03:19:31;;;;;;;0.20;0.20;;;;;;;12.02;87.88;100966.31;4859590;29;20052;-80
2021/05/11 03:21:57;;;;;;;0.30;0.30;;;;;;;11.96;87.84;100941.53;4879859;29;20063;-81
2021/05/11 03:24:22;;;;;;;0.20;0.20;;;;;;;11.89;88.06;100939.56;4862598;29;20076;-80
2021/05/11 03:26:49;;;;;;;0.38;0.32;;;;;;;11.97;87.47;100952.81;4879339;29;20064;-80
2021/05/11 03:29:15;;;;;;;0.20;0.20;;;;;;;12.01;87.72;100975.91;4860637;29;20091;-82
2021/05/11 03:31:41;;;;;;;0.10;0.10;;;;;;;11.84;88.03;100958.19;4861090;29;20053;-80
2021/05/11 03:34:06;;;;;;;0.20;0.20;;;;;;;11.93;88.06;100969.69;4891378;29;20056;-82
2021/05/11 03:36:32;;;;;;;0.20;0.20;;;;;;;11.93;87.97;100969.69;4875423;29;20045;-80
2021/05/11 03:39:01;;;;;;;0.20;0.20;;;;;;;11.93;88.14;100975.72;4875390;29;20064;-80
2021/05/11 03:41:30;;;;;;;0.10;0.10;;;;;;;11.97;87.75;100960.63;4828828;29;20057;-80
2021/05/11 03:44:07;;;;;;;0.13;0.13;;;;;;;12.04;87.83;100973.09;4889219;29;20440;-80
2021/05/11 03:46:34;;;;;;;0.20;0.20;;;;;;;11.92;88.05;100950.59;4856701;29;20049;-80
2021/05/11 03:49:02;;;;;;;0.20;0.20;;;;;;;11.97;88.08;100956.25;4881426;29;20687;-80
2021/05/11 03:51:28;;;;;;;0.20;0.20;;;;;;;11.94;88.36;100948.66;4874986;29;20071;-80
2021/05/11 03:53:54;;;;;;;0.10;0.10;;;;;;;11.92;88.74;100950.59;4892397;29;20404;-80
2021/05/11 03:56:19;;;;;;;0.25;0.25;;;;;;;11.76;88.60;100917.03;4908348;29;20128;-81
2021/05/11 03:58:45;;;;;;;0.20;0.20;;;;;;;11.91;88.39;100945.50;4880234;29;20075;-81
2021/05/11 04:01:10;;;;;;;0.20;0.20;;;;;;;11.92;88.43;100947.16;4880376;29;20051;-79
2021/05/11 04:03:36;;;;;;;0.20;0.20;;;;;;;11.87;88.13;100937.09;4879863;29;20059;-80
2021/05/11 04:06:02;;;;;;;0.20;0.20;;;;;;;11.79;88.71;100926.44;4910705;29;20108;-80
2021/05/11 04:11:02;;;;;;;0.20;0.20;;;;;;;11.94;88.32;100934.78;4893869;29;20052;-80
2021/05/11 04:13:37;;;;;;;0.20;0.20;;;;;;;11.95;87.96;100933.84;4895564;29;20052;-80
2021/05/11 04:18:37;;;;;;;0.10;0.10;;;;;;;11.85;87.67;100927.69;4896064;29;20204;-83
2021/05/11 04:21:03;;;;;;;0.10;0.10;;;;;;;11.77;87.47;100916.09;4864904;29;20056;-81
2021/05/11 04:23:29;;;;;;;0.20;0.20;;;;;;;11.93;87.28;100947.03;4894665;29;20101;-80
2021/05/11 04:25:54;;;;;;;0.10;0.10;;;;;;;11.85;87.51;100925.94;4878670;29;20040;-80
2021/05/11 04:28:20;;;;;;;0.15;0.15;;;;;;;11.68;87.79;100906.41;4878645;29;20909;-80
2021/05/11 04:30:46;;;;;;;0.10;0.10;;;;;;;11.73;87.91;100913.88;4895130;29;20100;-80
2021/05/11 04:33:11;;;;;;;0.10;0.10;;;;;;;11.76;87.97;100921.44;4879419;29;20104;-80
2021/05/11 04:35:37;;;;;;;0.10;0.10;;;;;;;11.61;87.62;100904.41;4894992;29;20858;-79
2021/05/11 04:38:03;;;;;;;0.10;0.10;;;;;;;11.75;88.16;100932.81;4893689;29;20064;-79
2021/05/11 04:40:28;;;;;;;0.10;0.10;;;;;;;11.78;88.10;100943.00;4862692;29;20047;-79
2021/05/11 04:42:54;;;;;;;0.10;0.10;;;;;;;11.68;87.66;100926.47;4894123;29;20563;-79
2021/05/11 04:45:22;;;;;;;0.10;0.10;;;;;;;11.89;87.36;100966.50;4892606;29;20051;-79
2021/05/11 04:47:50;;;;;;;0.10;0.10;;;;;;;11.89;87.81;100965.66;4877931;29;20043;-79
2021/05/11 04:50:21;;;;;;;0.10;0.10;;;;;;;11.72;87.47;100946.13;4877988;29;20064;-78
2021/05/11 04:52:48;;;;;;;0.10;0.10;;;;;;;11.84;87.54;100959.97;4892096;29;20073;-79
2021/05/11 04:55:15;;;;;;;0.10;0.10;;;;;;;11.92;87.84;100971.47;4892207;29;20109;-78
2021/05/11 04:57:41;;;;;;;0.10;0.10;;;;;;;11.83;88.05;100958.31;4910767;29;20096;-79
2021/05/11 05:00:08;;;;;;;0.10;0.10;;;;;;;11.86;87.37;100964.13;4911461;29;20869;-79
2021/05/11 05:02:37;;;;;;;0.10;0.10;;;;;;;11.78;87.15;100958.66;4893553;29;20625;-79
2021/05/11 05:05:02;;;;;;;0.10;0.10;;;;;;;11.84;87.04;100968.63;4874063;29;20040;-79
2021/05/11 05:07:28;;;;;;;0.10;0.10;;;;;;;11.77;87.51;100967.44;4891674;29;20407;-79
2021/05/11 05:09:57;;;;;;;0.10;0.10;;;;;;;11.84;87.16;100978.22;4879018;29;20583;-79
2021/05/11 05:12:22;;;;;;;0.10;0.10;;;;;;;11.77;87.31;100972.66;4878326;29;20052;-79
2021/05/11 05:14:48;;;;;;;0.10;0.10;;;;;;;11.82;87.68;100978.34;4877783;29;20096;-79
2021/05/11 05:17:13;;;;;;;0.10;0.10;;;;;;;11.77;87.26;100972.66;4860900;29;20060;-79
2021/05/11 05:19:39;;;;;;;0.10;0.10;;;;;;;11.84;87.46;100999.94;4877822;29;20047;-79
2021/05/11 05:22:07;;;;;;;0.10;0.10;;;;;;;11.85;87.71;100996.41;4890984;29;20044;-79
2021/05/11 05:24:40;;;;;;;0.10;0.10;;;;;;;11.69;88.05;100972.47;4878223;29;20067;-79
2021/05/11 05:27:19;;;;;;;0.10;0.10;;;;;;;11.84;88.42;100997.31;4877293;29;20418;-79
2021/05/11 05:29:45;;;;;;;0.10;0.10;;;;;;;11.77;88.15;100983.09;4874832;29;20049;-79
2021/05/11 05:32:11;;;;;;;0.10;0.10;;;;;;;11.79;88.65;100983.84;4878121;29;20101;-79
2021/05/11 05:34:36;;;;;;;0.10;0.10;;;;;;;11.74;88.53;100972.91;4893061;29;20052;-79
2021/05/11 05:37:02;;;;;;;0.10;0.10;;;;;;;11.85;88.96;100985.97;4893248;29;20048;-79
2021/05/11 05:39:33;;;;;;;0.10;0.10;;;;;;;11.84;89.25;100980.84;4878449;29;20052;-79
2021/05/11 05:41:59;;;;;;;0.10;0.10;;;;;;;11.71;89.62;100967.94;4876633;29;20056;-79
2021/05/11 05:44:25;;;;;;;0.10;0.10;;;;;;;11.78;89.36;100980.41;4877548;29;20052;-79
2021/05/11 05:46:50;;;;;;;0.10;0.10;;;;;;;11.89;89.45;100999.59;4874426;29;20080;-78
2021/05/11 05:49:16;;;;;;;0.10;0.10;;;;;;;11.95;90.19;100996.47;4869784;29;20056;-77
2021/05/11 05:51:42;;;;;;;0.10;0.10;;;;;;;11.97;89.48;100992.78;4874936;29;20052;-77
2021/05/11 05:54:08;;;;;;;0.10;0.10;;;;;;;12.04;89.11;100996.56;4870117;29;20073;-79
2021/05/11 05:56:34;;;;;;;0.10;0.10;;;;;;;12.11;89.42;101007.34;4856434;29;20331;-79
2021/05/11 05:59:00;;;;;;;0.10;0.10;;;;;;;12.17;88.88;101001.59;4857081;29;20055;-78
2021/05/11 06:01:28;;;;;;;0.10;0.10;;;;;;;12.36;88.74;101017.41;4858905;29;20045;-79
2021/05/11 06:04:14;;;;;;;0.10;0.10;;;;;;;12.43;88.96;101014.31;4890524;29;20055;-81
2021/05/11 06:06:43;;;;;;;0.10;0.10;;;;;;;12.50;89.02;101016.28;4871939;29;20061;-79
2021/05/11 06:09:26;;;;;;;0.10;0.10;;;;;;;12.54;88.71;101015.06;4870946;29;20090;-78
2021/05/11 06:12:32;;;;;;;0.10;0.10;;;;;;;12.68;88.25;101027.81;4874120;29;20044;-79
2021/05/11 06:17:21;;;;;;;0.10;0.10;;;;;;;12.83;87.92;101022.28;4875483;29;20124;-78
2021/05/11 06:19:50;;;;;;;0.10;0.10;;;;;;;12.80;87.15;101017.31;4890770;29;20128;-77
2021/05/11 06:22:16;;;;;;;0.10;0.10;;;;;;;12.78;87.26;101001.75;4875169;29;20524;-78
2021/05/11 06:24:42;;;;;;;0.10;0.10;;;;;;;12.79;86.98;101010.44;4844067;29;20093;-79
2021/05/11 06:27:10;;;;;;;0.10;0.10;;;;;;;12.75;87.07;101015.09;4873514;29;20408;-79
2021/05/11 06:29:38;;;;;;;0.10;0.10;;;;;;;12.77;86.56;101014.97;4871860;29;20060;-79
2021/05/11 06:32:05;;;;;;;0.10;0.10;;;;;;;12.66;86.49;101008.84;4888914;29;20104;-79
2021/05/11 06:34:31;;;;;;;0.10;0.10;;;;;;;12.66;86.46;101013.22;4841745;29;20044;-78
2021/05/11 06:36:58;;;;;;;0.20;0.10;;;;;;;12.56;86.08;101021.00;4888878;29;20045;-79
2021/05/11 06:39:23;;;;;;;0.10;0.10;;;;;;;12.50;85.77;101013.69;4871124;29;20040;-79
2021/05/11 06:41:51;;;;;;;0.10;0.10;;;;;;;12.45;85.13;101026.28;4856983;29;20052;-80
2021/05/11 06:49:29;;;;;;;0.10;0.10;;;;;;;12.34;85.56;101026.34;4872415;29;20052;-82
2021/05/11 06:54:39;;;;;;;0.10;0.10;;;;;;;12.39;84.51;101016.38;4860523;29;20140;-80
2021/05/11 06:57:06;;;;;;;0.10;0.10;;;;;;;12.52;84.76;101027.44;4873454;29;20044;-80
2021/05/11 06:59:32;;;;;;;0.20;0.20;;;;;;;12.54;84.51;101029.91;4872362;29;20045;-80
2021/05/11 07:02:00;;;;;;;0.20;0.20;;;;;;;12.37;84.28;100994.75;4873708;29;20063;-80
2021/05/11 07:04:25;;;;;;;0.20;0.20;;;;;;;12.54;84.15;101012.47;4843259;29;20059;-79
2021/05/11 07:06:51;;;;;;;0.10;0.10;;;;;;;12.77;84.21;101043.72;4873847;29;20053;-80
2021/05/11 07:09:22;;;;;;;0.20;0.20;;;;;;;12.80;84.50;101041.66;4873998;29;20503;-79
2021/05/11 07:14:14;;;;;;;0.13;0.13;;;;;;;12.77;83.97;101026.25;4873452;29;20056;-79
2021/05/11 07:16:39;;;;;;;0.10;0.10;;;;;;;12.79;84.52;101047.00;4858322;29;20101;-80
2021/05/11 07:19:05;;;;;;;0.10;0.10;;;;;;;12.78;84.67;101040.97;4872259;29;20044;-80
2021/05/11 07:21:30;;;;;;;0.10;0.10;;;;;;;12.87;84.26;101053.25;4858984;29;20056;-79
2021/05/11 07:23:57;;;;;;;0.13;0.13;;;;;;;12.85;84.12;101041.25;4857824;29;20048;-77
2021/05/11 07:26:27;;;;;;;0.10;0.10;;;;;;;12.89;84.44;101053.94;4873648;29;20055;-79
2021/05/11 07:29:04;;;;;;;0.20;0.20;;;;;;;12.81;84.62;101042.47;4873282;29;20530;-80
2021/05/11 07:31:30;;;;;;;0.20;0.20;;;;;;;12.83;85.41;101037.94;4857520;29;20101;-80
2021/05/11 07:33:57;;;;;;;0.10;0.10;;;;;;;12.80;85.57;101033.81;4892814;29;20045;-80
2021/05/11 07:36:24;;;;;;;0.20;0.20;;;;;;;12.72;85.92;101020.53;4832825;29;20108;-80
2021/05/11 07:38:50;;;;;;;0.10;0.10;;;;;;;12.88;85.73;101033.16;4862645;29;20052;-79
2021/05/11 07:41:17;;;;;;;0.20;0.20;;;;;;;12.99;85.48;101044.38;4858320;29;20320;-79
2021/05/11 07:43:47;;;;;;;0.10;0.10;;;;;;;12.96;85.84;101034.19;4877822;29;20580;-79
2021/05/11 08:10:34;;;;;;;0.10;0.10;;;;;;;13.80;84.23;100990.28;4879502;29;20044;-79
2021/05/11 08:15:56;;;;;;;0.10;0.10;;;;;;;14.02;82.02;100986.59;4869237;29;20058;-79
2021/05/11 08:29:15;;;;;;;0.15;0.15;;;;;;;14.16;81.87;100982.72;4880923;29;19931;-79
2021/05/11 08:31:41;;;;;;;0.13;0.13;;;;;;;14.14;81.44;100964.53;4845468;29;20043;-77
2021/05/11 08:34:07;;;;;;;0.10;0.10;;;;;;;14.35;81.92;100992.34;4864599;29;20117;-78
2021/05/11 08:36:32;;;;;;;0.10;0.10;;;;;;;14.42;79.96;100996.91;4877308;29;20127;-77
2021/05/11 08:38:59;;;;;;;0.10;0.10;;;;;;;14.48;80.64;101003.41;4893922;29;20048;-79
2021/05/11 08:41:25;;;;;;;0.10;0.10;;;;;;;14.56;79.66;100993.06;4855928;29;20056;-77
2021/05/11 08:43:51;;;;;;;0.10;0.10;;;;;;;14.47;77.82;100991.28;4878975;29;20068;-78
2021/05/11 08:46:16;;;;;;;0.10;0.10;;;;;;;14.45;77.67;100990.59;4862044;29;20044;-78
2021/05/11 08:48:42;;;;;;;0.20;0.20;;;;;;;14.47;78.09;100984.25;4894837;29;20107;-78
2021/05/11 09:34:57;;;;;;;0.15;0.15;;;;;;;15.45;68.42;100972.44;4890867;29;20448;-77
2021/05/11 10:48:23;;;;;;;0.20;0.20;;;;;;;16.00;69.81;100990.75;4892096;29;20738;-79
2021/05/11 10:51:00;;;;;;;0.10;0.10;;;;;;;15.77;70.31;101002.63;4874785;29;20064;-78
2021/05/11 10:53:44;;;;;;;0.13;0.13;;;;;;;15.66;70.88;101009.75;4872030;29;20044;-80
2021/05/11 10:56:24;;;;;;;0.20;0.20;;;;;;;15.80;71.49;101003.19;4858411;29;20069;-79
2021/05/11 11:04:24;;;;;;;0.30;0.10;;;;;;;16.16;70.73;100961.97;4889508;29;20053;-79
2021/05/11 11:07:00;;;;;;;0.13;0.13;;;;;;;16.35;69.62;100976.75;4857737;29;20061;-77
2021/05/11 11:09:25;;;;;;;0.10;0.10;;;;;;;16.50;68.67;100979.63;4862049;29;20411;-78
2021/05/11 11:11:51;;;;;;;0.20;0.20;;;;;;;16.53;68.81;100971.44;4875586;29;20057;-79
2021/05/11 11:14:17;;;;;;;0.13;0.13;;;;;;;16.48;69.99;100979.78;4878182;29;20051;-79
2021/05/11 11:16:43;;;;;;;0.10;0.10;;;;;;;16.42;69.54;100950.66;4877044;29;20456;-80
2021/05/11 11:19:09;;;;;;;0.10;0.10;;;;;;;16.52;68.98;100957.47;4893192;29;20036;-79
2021/05/11 11:24:32;;;;;;;0.10;0.10;;;;;;;17.39;68.33;100959.03;4876828;29;20060;-80
2021/05/11 11:26:59;;;;;;;0.10;0.10;;;;;;;17.26;65.14;100969.22;4875082;29;20045;-80
2021/05/11 11:29:26;;;;;;;0.20;0.10;;;;;;;16.58;68.17;100956.03;4876681;29;20092;-80
2021/05/11 11:31:52;;;;;;;0.10;0.10;;;;;;;16.32;70.01;100941.06;4877959;29;20048;-79
2021/05/11 11:34:24;;;;;;;0.20;0.20;;;;;;;16.00;71.50;100967.09;4872727;29;20478;-79
2021/05/11 11:36:58;;;;;;;0.10;0.10;;;;;;;15.75;72.12;100957.31;4861301;29;20052;-80
2021/05/11 11:39:28;;;;;;;0.10;0.10;;;;;;;15.58;71.94;100980.75;4876635;29;20570;-80
2021/05/11 11:41:55;;;;;;;0.10;0.10;;;;;;;15.48;71.51;100966.06;4892679;29;20501;-80
2021/05/11 11:44:23;;;;;;;0.10;0.10;;;;;;;15.49;70.76;100971.16;4892670;29;20112;-80
2021/05/11 11:47:03;;;;;;;0.10;0.10;;;;;;;15.52;70.84;100977.91;4894279;29;20051;-79
2021/05/11 11:49:31;;;;;;;0.10;0.10;;;;;;;15.51;70.98;100971.00;4879247;29;20117;-80
2021/05/11 11:52:08;;;;;;;0.10;0.10;;;;;;;15.56;69.86;100976.63;4891165;29;20771;-79
2021/05/11 11:55:01;;;;;;;0.13;0.13;;;;;;;15.38;69.20;100926.75;4875982;29;20108;-79
2021/05/11 11:57:45;;;;;;;0.10;0.10;;;;;;;15.82;68.63;100959.22;4866540;29;20105;-79
2021/05/11 12:00:34;;;;;;;0.10;0.10;;;;;;;15.96;68.29;100965.72;4861884;29;20128;-79
2021/05/11 12:03:05;;;;;;;0.10;0.10;;;;;;;16.10;68.04;100964.38;4891121;29;20047;-79
2021/05/11 12:05:34;;;;;;;0.15;0.15;;;;;;;16.10;67.25;100959.94;4874417;29;20041;-78
2021/05/11 12:08:05;;;;;;;0.10;0.10;;;;;;;15.99;67.14;100949.69;4891987;29;20148;-78
2021/05/11 12:10:33;;;;;;;0.20;0.20;;;;;;;16.10;68.87;100948.59;4877032;29;20494;-79
2021/05/11 12:13:05;;;;;;;0.10;0.10;;;;;;;16.18;66.68;100965.28;4860074;29;20052;-80
2021/05/11 12:15:31;;;;;;;0.10;0.10;;;;;;;16.08;68.44;100948.75;4859640;29;20121;-80
2021/05/11 12:18:19;;;;;;;0.10;0.10;;;;;;;16.16;68.22;100942.75;4843752;29;20052;-79
2021/05/11 12:20:46;;;;;;;0.10;0.10;;;;;;;16.24;68.64;100956.78;4863155;29;20142;-79
2021/05/11 12:23:18;;;;;;;0.10;0.10;;;;;;;15.99;69.18;100950.50;4857879;29;20063;-77
2021/05/11 12:26:05;;;;;;;0.10;0.10;;;;;;;15.88;69.17;100961.22;4887245;29;20060;-79
2021/05/11 12:28:32;;;;;;;0.10;0.10;;;;;;;15.61;70.99;100966.53;4889045;29;20059;-80
2021/05/11 12:30:57;;;;;;;0.10;0.10;;;;;;;15.35;72.20;100955.91;4857421;29;20750;-79
2021/05/11 12:33:32;;;;;;;0.10;0.10;;;;;;;15.13;74.70;100962.38;4891328;29;20044;-79
2021/05/11 12:36:02;;;;;;;0.10;0.10;;;;;;;15.01;75.72;100964.34;4887227;29;20045;-79
2021/05/11 12:38:30;;;;;;;0.10;0.10;;;;;;;15.14;76.28;100971.06;4859906;29;20644;-79
2021/05/11 12:43:40;;;;;;;0.10;0.10;;;;;;;15.32;75.48;100961.44;4874163;29;20063;-79
2021/05/11 12:46:20;;;;;;;0.10;0.10;;;;;;;15.42;74.54;100976.16;4873581;29;20515;-79
2021/05/11 12:49:00;;;;;;;0.10;0.10;;;;;;;15.38;73.25;100969.53;4872515;29;20048;-79
2021/05/11 12:51:26;;;;;;;0.10;0.10;;;;;;;15.47;74.12;100995.91;4891158;29;20495;-78
2021/05/11 12:53:54;;;;;;;0.10;0.10;;;;;;;15.31;73.88;100976.38;4877099;29;20207;-79
2021/05/11 12:57:02;;;;;;;0.10;0.10;;;;;;;15.44;73.29;100991.78;4876743;29;20052;-79
2021/05/11 12:59:41;;;;;;;0.10;0.10;;;;;;;15.40;71.66;100990.38;4891950;29;20048;-79
2021/05/11 13:25:56;;;;;;;0.20;0.20;;;;;;;15.15;74.39;100970.09;4910683;29;20055;-79
2021/05/11 13:28:38;;;;;;;0.10;0.10;;;;;;;14.99;76.20;100983.81;4877022;29;20561;-79
2021/05/11 13:31:29;;;;;;;0.13;0.13;;;;;;;15.01;77.52;100995.81;4864491;29;20055;-79
2021/05/11 13:36:21;;;;;;;0.10;0.10;;;;;;;15.01;78.49;100974.84;4873211;29;20056;-80
2021/05/11 13:38:46;;;;;;;0.10;0.10;;;;;;;15.02;78.24;100989.59;4877668;29;20394;-80
2021/05/11 13:41:12;;;;;;;0.15;0.15;;;;;;;14.88;77.66;100989.22;4874734;29;20051;-80
2021/05/11 13:43:37;;;;;;;0.15;0.15;;;;;;;14.57;78.43;100978.16;4890016;29;20559;-79
2021/05/11 13:46:03;;;;;;;0.10;0.10;;;;;;;14.43;79.21;100992.50;4857611;29;20067;-78
2021/05/11 13:48:37;;;;;;;0.10;0.10;;;;;;;14.22;81.06;100990.03;4861107;29;20763;-80
2021/05/11 13:53:32;;;;;;;0.20;0.20;;;;;;;13.99;81.53;100976.38;4889999;29;20038;-79
2021/05/11 14:04:02;;;;;;;0.10;0.10;;;;;;;13.51;81.09;100986.81;4891050;29;19998;-80
2021/05/11 14:06:28;;;;;;;0.20;0.20;;;;;;;13.40;81.91;100994.75;4861864;29;20040;-80
2021/05/11 14:08:54;;;;;;;0.10;0.10;;;;;;;13.53;82.50;101004.00;4878077;29;20546;-80
2021/05/11 14:11:21;;;;;;;0.20;0.20;;;;;;;13.44;82.22;100991.72;4875477;29;20044;-80
2021/05/11 14:13:46;;;;;;;0.10;0.10;;;;;;;13.36;81.97;100957.56;4861180;29;20067;-80
2021/05/11 14:16:12;;;;;;;0.20;0.20;;;;;;;13.57;82.60;100992.31;4905194;29;20051;-79
2021/05/11 14:18:37;;;;;;;0.20;0.20;;;;;;;13.59;82.20;100982.53;4854510;29;20056;-79
2021/05/11 14:21:05;;;;;;;0.10;0.10;;;;;;;13.57;80.28;100987.09;4861171;29;20698;-79
2021/05/11 14:23:30;;;;;;;0.10;0.10;;;;;;;13.59;80.06;100977.31;4862507;29;20055;-79
2021/05/11 14:25:57;;;;;;;0.10;0.10;;;;;;;13.52;79.89;100960.50;4878957;29;20044;-80
2021/05/11 14:28:23;;;;;;;0.20;0.20;;;;;;;13.61;80.18;100957.06;4853460;29;20056;-79
2021/05/11 14:30:49;;;;;;;0.20;0.20;;;;;;;13.62;79.62;100965.75;4878599;29;20055;-79
2021/05/11 14:33:14;;;;;;;0.10;0.10;;;;;;;13.59;79.76;100953.75;4881915;29;20055;-79
2021/05/11 14:35:40;;;;;;;0.10;0.10;;;;;;;13.45;79.88;100920.13;4892602;29;20152;-78
2021/05/11 14:38:06;;;;;;;0.20;0.20;;;;;;;13.91;79.99;100950.06;4870680;29;20067;-78
2021/05/11 14:40:32;;;;;;;0.10;0.10;;;;;;;14.10;80.12;100944.81;4915791;29;20059;-82
2021/05/11 14:42:58;;;;;;;0.10;0.10;;;;;;;14.09;79.61;100951.03;4851697;29;20048;-79
2021/05/11 14:45:24;;;;;;;0.10;0.10;;;;;;;14.43;79.75;100968.91;4881505;29;20040;-80
2021/05/11 14:47:50;;;;;;;0.20;0.20;;;;;;;14.42;79.11;100952.38;4865087;29;20055;-83
2021/05/11 14:50:18;;;;;;;0.10;0.10;;;;;;;14.48;78.90;100964.94;4878560;29;20499;-83
2021/05/11 14:52:44;;;;;;;0.10;0.10;;;;;;;14.35;79.29;100937.34;4880378;29;20048;-81
2021/05/11 14:55:14;;;;;;;0.10;0.10;;;;;;;14.58;79.61;100958.84;4864173;29;20052;-80
2021/05/11 14:57:40;;;;;;;0.10;0.10;;;;;;;14.75;78.75;100953.69;4895687;29;20044;-82
2021/05/11 15:00:07;;;;;;;0.20;0.20;;;;;;;14.81;79.16;100971.47;4905921;29;20045;-81
2021/05/11 15:02:34;;;;;;;0.20;0.20;;;;;;;14.78;79.13;100963.88;4877058;29;20063;-81
2021/05/11 15:05:01;;;;;;;0.20;0.20;;;;;;;14.79;79.99;100965.53;4873878;29;20048;-79
2021/05/11 15:07:27;;;;;;;0.10;0.10;;;;;;;14.62;78.91;100941.88;4870214;29;20658;-83
2021/05/11 15:09:52;;;;;;;0.10;0.10;;;;;;;14.59;79.79;100961.31;4916209;29;20052;-82
2021/05/11 15:12:18;;;;;;;0.17;0.17;;;;;;;14.64;79.00;100964.34;4892640;29;20055;-81
2021/05/11 15:14:44;;;;;;;0.10;0.10;;;;;;;14.52;79.24;100957.59;4885120;29;20061;-81
2021/05/11 15:19:55;;;;;;;0.20;0.20;;;;;;;14.46;79.38;100964.25;4875590;29;20048;-81
2021/05/11 15:22:21;;;;;;;0.10;0.10;;;;;;;14.45;78.88;100978.31;4906395;29;20135;-81
2021/05/11 15:24:48;;;;;;;0.20;0.20;;;;;;;14.23;78.55;100952.41;4888737;29;20036;-80
2021/05/11 15:27:14;;;;;;;0.20;0.20;;;;;;;14.18;78.64;100960.69;4890657;29;20048;-81
2021/05/11 15:29:40;;;;;;;0.10;0.10;;;;;;;14.05;79.85;100975.03;4890516;29;20062;-81
2021/05/11 15:32:39;;;;;;;0.20;0.20;;;;;;;13.90;79.14;100979.84;4873635;29;20044;-82
2021/05/11 15:35:10;;;;;;;0.20;0.20;;;;;;;13.76;80.02;100970.59;4889931;29;20166;-79
2021/05/11 15:37:36;;;;;;;0.20;0.20;;;;;;;13.85;79.48;100979.44;4888538;29;20138;-82
2021/05/11 15:40:11;;;;;;;0.15;0.15;;;;;;;13.70;78.87;100963.28;4858028;29;20064;-80
2021/05/11 15:42:37;;;;;;;0.10;0.10;;;;;;;13.71;79.34;100961.50;4905296;29;20049;-78
2021/05/11 15:45:04;;;;;;;0.20;0.20;;;;;;;13.65;79.05;100959.44;4856900;29;20051;-80
2021/05/11 15:47:30;;;;;;;0.17;0.17;;;;;;;13.65;79.37;100986.44;4901951;29;20048;-79
2021/05/11 15:49:56;;;;;;;0.20;0.20;;;;;;;13.51;80.00;100963.25;4889603;29;20475;-80
2021/05/11 15:52:21;;;;;;;0.45;0.15;;;;;;;13.44;80.58;100955.09;4872863;29;20059;-77
2021/05/11 15:54:50;;;;;;;0.20;0.20;;;;;;;13.57;79.66;100983.63;4849878;29;20052;-79
2021/05/11 15:57:17;;;;;;;0.15;0.15;;;;;;;13.58;79.12;100999.19;4908057;29;20052;-79
2021/05/11 15:59:43;;;;;;;0.10;0.10;;;;;;;13.42;79.17;100977.13;4904878;29;20056;-79
2021/05/11 16:02:09;;;;;;;0.20;0.20;;;;;;;13.43;79.57;100966.53;4875009;29;20177;-79
2021/05/11 16:04:35;;;;;;;0.10;0.10;;;;;;;13.49;79.51;100978.25;4856654;29;20048;-78
2021/05/11 16:07:02;;;;;;;0.20;0.20;;;;;;;13.46;80.27;100968.88;4874346;29;20510;-80
2021/05/11 16:09:27;;;;;;;0.10;0.10;;;;;;;13.47;80.17;100956.66;4889030;29;20058;-81